createdAt,value
2023-03-29T00:02:42.089Z,3.30
2023-03-29T00:05:51.327Z,3.50
2023-03-29T00:08:59.482Z,3.20
2023-03-29T00:12:07.969Z,3.60
2023-03-29T00:15:16.739Z,3.10
2023-03-29T00:18:24.832Z,3.20
2023-03-29T00:21:33.161Z,3.30
2023-03-29T00:24:41.413Z,3.10
2023-03-29T00:27:49.389Z,3.20
2023-03-29T00:31:05.249Z,4.10
2023-03-29T00:34:13.762Z,3.10
2023-03-29T00:37:22.825Z,3.30
2023-03-29T00:40:30.820Z,3.40
2023-03-29T00:44:00.900Z,3.30
2023-03-29T00:47:09.189Z,3.60
2023-03-29T00:50:26.000Z,3.30
2023-03-29T00:53:38.210Z,3.60
2023-03-29T00:56:51.201Z,4.00
2023-03-29T01:00:01.794Z,3.80
2023-03-29T01:03:14.645Z,3.30
2023-03-29T01:06:29.484Z,3.60
2023-03-29T01:09:43.045Z,3.40
2023-03-29T01:12:56.739Z,3.50
2023-03-29T01:16:07.463Z,3.70
2023-03-29T01:19:21.704Z,3.80
2023-03-29T01:22:40.971Z,3.80
2023-03-29T01:26:01.962Z,4.30
2023-03-29T01:29:16.735Z,3.80
2023-03-29T01:32:31.289Z,3.90
2023-03-29T01:35:46.775Z,3.90
2023-03-29T01:39:05.331Z,3.90
2023-03-29T01:42:31.150Z,4.00
2023-03-29T01:45:47.685Z,3.90
2023-03-29T01:49:01.805Z,4.00
2023-03-29T01:52:17.413Z,3.80
2023-03-29T01:55:32.764Z,3.60
2023-03-29T01:58:47.223Z,3.10
2023-03-29T02:02:00.866Z,3.40
2023-03-29T02:05:12.854Z,3.70
2023-03-29T02:08:23.632Z,3.60
2023-03-29T02:11:32.253Z,4.00
2023-03-29T02:14:40.589Z,4.00
2023-03-29T02:17:49.605Z,3.80
2023-03-29T02:21:00.370Z,3.40
2023-03-29T02:24:15.585Z,3.70
2023-03-29T02:27:24.375Z,4.30
2023-03-29T02:30:42.108Z,4.20
2023-03-29T02:33:55.952Z,3.60
2023-03-29T02:37:10.508Z,3.90
2023-03-29T02:40:21.192Z,4.00
2023-03-29T02:43:31.221Z,3.60
2023-03-29T02:46:39.941Z,4.00
2023-03-29T02:49:48.898Z,4.30
2023-03-29T02:53:03.129Z,4.10
2023-03-29T02:56:12.798Z,4.20
2023-03-29T02:59:22.867Z,4.00
2023-03-29T03:02:31.128Z,4.10
2023-03-29T03:05:39.375Z,4.30
2023-03-29T03:08:47.930Z,3.90
2023-03-29T03:11:56.275Z,3.80
2023-03-29T03:15:04.235Z,4.10
2023-03-29T03:18:12.979Z,4.30
2023-03-29T03:21:21.248Z,3.70
2023-03-29T03:24:29.323Z,4.00
2023-03-29T03:27:37.396Z,4.20
2023-03-29T03:30:45.921Z,4.40
2023-03-29T03:33:54.628Z,4.10
2023-03-29T03:37:02.902Z,4.40
2023-03-29T03:40:14.130Z,4.80
2023-03-29T03:43:22.313Z,4.90
2023-03-29T03:46:30.405Z,4.90
2023-03-29T03:49:38.472Z,5.00
2023-03-29T03:52:46.914Z,5.00
2023-03-29T03:55:56.394Z,4.90
2023-03-29T03:59:05.358Z,4.80
2023-03-29T04:02:13.365Z,4.80
2023-03-29T04:05:21.340Z,5.00
2023-03-29T04:08:30.424Z,5.60
2023-03-29T04:11:38.712Z,5.10
2023-03-29T04:14:47.701Z,6.10
2023-03-29T04:17:55.682Z,5.50
2023-03-29T04:21:04.519Z,5.60
2023-03-29T04:24:13.050Z,5.60
2023-03-29T04:27:21.822Z,5.50
2023-03-29T04:30:29.934Z,5.70
2023-03-29T04:33:38.020Z,5.30
2023-03-29T04:36:46.478Z,5.60
2023-03-29T04:39:55.195Z,5.60
2023-03-29T04:43:03.243Z,5.20
2023-03-29T04:46:11.406Z,5.40
2023-03-29T04:49:19.635Z,5.50
2023-03-29T04:52:27.736Z,6.10
2023-03-29T04:55:36.093Z,5.40
2023-03-29T04:58:44.839Z,5.00
2023-03-29T05:01:52.948Z,5.20
2023-03-29T05:05:01.421Z,5.00
2023-03-29T05:08:12.770Z,5.80
2023-03-29T05:11:21.434Z,6.50
2023-03-29T05:14:29.585Z,6.30
2023-03-29T05:17:37.834Z,6.20
2023-03-29T05:20:46.112Z,8.80
2023-03-29T05:23:54.672Z,6.00
2023-03-29T05:27:02.690Z,5.90
2023-03-29T05:30:15.385Z,6.00
2023-03-29T05:33:23.815Z,6.20
2023-03-29T05:36:32.407Z,5.60
2023-03-29T05:39:40.709Z,5.10
2023-03-29T05:42:49.272Z,4.90
2023-03-29T05:45:59.483Z,5.00
2023-03-29T05:49:08.806Z,5.10
2023-03-29T05:52:17.294Z,4.60
2023-03-29T05:55:25.356Z,4.20
2023-03-29T05:58:33.265Z,5.00
2023-03-29T06:01:41.943Z,5.50
2023-03-29T06:04:50.063Z,4.90
2023-03-29T06:07:59.052Z,5.70
2023-03-29T06:11:11.450Z,5.20
2023-03-29T06:14:19.593Z,5.60
2023-03-29T06:17:28.228Z,4.90
2023-03-29T06:20:37.190Z,5.20
2023-03-29T06:23:45.706Z,5.20
2023-03-29T06:26:54.174Z,4.50
2023-03-29T06:30:03.112Z,4.80
2023-03-29T06:33:11.649Z,5.00
2023-03-29T06:36:20.512Z,4.70
2023-03-29T06:39:28.693Z,4.90
2023-03-29T06:42:37.204Z,4.90
2023-03-29T06:45:45.350Z,4.40
2023-03-29T06:48:53.589Z,4.90
2023-03-29T06:52:01.858Z,5.20
2023-03-29T06:55:12.078Z,5.00
2023-03-29T06:58:20.649Z,4.90
2023-03-29T07:01:29.540Z,5.40
2023-03-29T07:04:37.702Z,5.20
2023-03-29T07:07:57.170Z,5.20
2023-03-29T07:11:05.537Z,5.30
2023-03-29T07:14:13.528Z,5.00
2023-03-29T07:17:22.968Z,5.50
2023-03-29T07:20:31.233Z,5.80
2023-03-29T07:23:40.071Z,7.10
2023-03-29T07:27:00.116Z,5.80
2023-03-29T07:30:17.974Z,6.00
2023-03-29T07:33:26.091Z,6.30
2023-03-29T07:36:34.868Z,7.40
2023-03-29T07:39:43.196Z,7.30
2023-03-29T07:42:52.681Z,5.60
2023-03-29T07:46:04.968Z,6.20
2023-03-29T07:49:12.988Z,7.40
2023-03-29T07:52:20.928Z,6.70
2023-03-29T07:55:28.955Z,6.30
2023-03-29T07:58:38.089Z,6.00
2023-03-29T08:01:47.027Z,5.00
2023-03-29T08:04:56.926Z,5.60
2023-03-29T08:11:11.390Z,5.50
2023-03-29T08:14:19.140Z,5.50
2023-03-29T08:17:27.160Z,4.90
2023-03-29T08:20:35.369Z,5.50
2023-03-29T08:23:43.767Z,5.30
2023-03-29T08:26:52.198Z,5.20
2023-03-29T08:30:00.207Z,4.80
2023-03-29T08:33:08.173Z,5.10
2023-03-29T08:36:16.707Z,5.30
2023-03-29T08:39:24.985Z,4.80
2023-03-29T08:43:07.315Z,5.00
2023-03-29T08:46:35.106Z,4.70
2023-03-29T08:49:49.834Z,5.80
2023-03-29T08:53:02.843Z,5.10
2023-03-29T08:56:18.034Z,5.30
2023-03-29T08:59:32.101Z,4.90
2023-03-29T09:02:42.358Z,5.50
2023-03-29T09:05:54.706Z,5.30
2023-03-29T09:09:02.815Z,4.00
2023-03-29T09:12:31.828Z,5.40
2023-03-29T09:15:52.049Z,4.10
2023-03-29T09:19:14.885Z,5.20
2023-03-29T09:22:32.168Z,4.40
2023-03-29T09:25:55.498Z,5.20
2023-03-29T09:29:24.070Z,5.10
2023-03-29T09:32:42.346Z,5.20
2023-03-29T09:36:00.142Z,4.60
2023-03-29T09:39:10.892Z,5.20
2023-03-29T09:42:21.200Z,4.60
2023-03-29T09:45:29.109Z,4.80
2023-03-29T09:48:44.809Z,4.90
2023-03-29T09:51:55.838Z,4.70
2023-03-29T09:55:06.200Z,4.20
2023-03-29T09:58:22.076Z,4.50
2023-03-29T10:01:42.229Z,5.10
2023-03-29T10:04:58.897Z,4.60
2023-03-29T10:08:20.166Z,4.60
2023-03-29T10:11:35.706Z,4.40
2023-03-29T10:14:53.042Z,4.30
2023-03-29T10:18:10.947Z,3.90
2023-03-29T10:21:22.268Z,3.60
2023-03-29T10:24:31.206Z,4.00
2023-03-29T10:27:42.397Z,3.80
2023-03-29T10:30:57.525Z,3.70
2023-03-29T10:34:09.036Z,3.40
2023-03-29T10:37:19.679Z,3.30
2023-03-29T10:40:34.681Z,3.80
2023-03-29T10:43:49.733Z,3.70
2023-03-29T10:46:57.874Z,3.90
2023-03-29T10:50:16.581Z,3.60
2023-03-29T10:53:30.180Z,3.50
2023-03-29T10:56:46.924Z,3.70
2023-03-29T11:00:02.984Z,3.70
2023-03-29T11:03:35.454Z,3.70
2023-03-29T11:06:54.464Z,3.40
2023-03-29T11:10:26.100Z,4.00
2023-03-29T11:13:46.855Z,3.70
2023-03-29T11:17:17.724Z,3.80
2023-03-29T11:20:36.290Z,4.10
2023-03-29T11:23:56.810Z,3.60
2023-03-29T11:27:25.882Z,3.50
2023-03-29T11:30:41.336Z,4.00
2023-03-29T11:34:07.345Z,3.70
2023-03-29T11:37:24.079Z,3.20
2023-03-29T11:40:48.308Z,3.20
2023-03-29T11:44:04.672Z,3.10
2023-03-29T11:47:19.878Z,3.20
2023-03-29T11:50:36.124Z,3.30
2023-03-29T11:53:56.547Z,3.30
2023-03-29T11:57:13.552Z,3.00
2023-03-29T12:00:28.773Z,3.00
2023-03-29T12:03:47.176Z,3.10
2023-03-29T12:07:08.214Z,3.20
2023-03-29T12:10:25.049Z,3.10
2023-03-29T12:13:39.319Z,3.10
2023-03-29T12:16:54.877Z,3.40
2023-03-29T12:20:16.859Z,3.20
2023-03-29T12:23:25.119Z,3.40
2023-03-29T12:26:55.992Z,3.30
2023-03-29T12:30:40.115Z,3.20
2023-03-29T12:34:15.270Z,3.40
2023-03-29T12:37:37.423Z,3.30
2023-03-29T12:40:49.908Z,3.40
2023-03-29T12:44:04.745Z,3.10
2023-03-29T12:47:24.999Z,3.40
2023-03-29T12:50:42.819Z,3.20
2023-03-29T12:53:55.252Z,3.00
2023-03-29T12:57:20.540Z,3.00
2023-03-29T13:00:44.298Z,3.40
2023-03-29T13:03:57.497Z,3.90
2023-03-29T13:07:16.923Z,3.40
2023-03-29T13:10:53.322Z,4.20
2023-03-29T13:14:05.948Z,3.60
2023-03-29T13:17:26.451Z,3.40
2023-03-29T13:20:54.283Z,3.70
2023-03-29T13:24:17.368Z,3.50
2023-03-29T13:27:42.780Z,4.10
2023-03-29T13:31:01.909Z,3.30
2023-03-29T13:34:25.112Z,3.40
2023-03-29T13:37:49.088Z,3.60
2023-03-29T13:41:29.154Z,3.40
2023-03-29T13:44:49.329Z,4.10
2023-03-29T13:51:34.932Z,3.40
2023-03-29T13:54:52.101Z,3.60
2023-03-29T13:58:05.798Z,3.50
2023-03-29T14:01:24.710Z,3.60
2023-03-29T14:04:40.152Z,4.00
2023-03-29T14:07:54.008Z,3.50
2023-03-29T14:11:08.376Z,3.70
2023-03-29T14:14:18.106Z,3.70
2023-03-29T14:17:28.383Z,3.50
2023-03-29T14:20:38.543Z,3.90
2023-03-29T14:23:55.875Z,3.80
2023-03-29T14:27:10.302Z,3.90
2023-03-29T14:30:30.777Z,3.80
2023-03-29T14:33:39.224Z,4.00
2023-03-29T14:36:50.184Z,4.00
2023-03-29T14:40:00.155Z,4.00
2023-03-29T14:43:11.680Z,4.30
2023-03-29T14:46:23.628Z,4.30
2023-03-29T14:49:33.389Z,4.70
2023-03-29T14:52:46.409Z,4.00
2023-03-29T14:55:56.706Z,4.20
2023-03-29T14:59:22.489Z,4.10
2023-03-29T15:02:33.022Z,4.10
2023-03-29T15:05:45.684Z,4.00
2023-03-29T15:09:05.166Z,3.70
2023-03-29T15:12:21.399Z,3.50
2023-03-29T15:15:31.968Z,3.30
2023-03-29T15:18:44.211Z,4.00
2023-03-29T15:21:54.612Z,9.90
2023-03-29T15:25:03.473Z,4.00
2023-03-29T15:28:33.797Z,13.40
2023-03-29T15:31:43.680Z,4.20
2023-03-29T15:38:11.161Z,4.20
2023-03-29T15:41:19.539Z,3.70
2023-03-29T15:44:33.980Z,3.50
2023-03-29T15:47:42.359Z,3.60
2023-03-29T15:50:50.908Z,3.60
2023-03-29T15:53:58.858Z,3.60
2023-03-29T15:57:10.273Z,4.40
2023-03-29T16:00:23.081Z,4.00
2023-03-29T16:03:31.710Z,4.00
2023-03-29T16:06:40.027Z,4.20
2023-03-29T16:09:48.980Z,4.50
2023-03-29T16:12:56.907Z,5.00
2023-03-29T16:16:04.983Z,4.30
2023-03-29T16:19:13.054Z,4.60
2023-03-29T16:22:21.318Z,4.40
2023-03-29T16:25:30.939Z,3.80
2023-03-29T16:28:38.761Z,3.80
2023-03-29T16:31:47.085Z,3.30
2023-03-29T16:34:56.006Z,3.30
2023-03-29T16:38:04.040Z,3.30
2023-03-29T16:41:16.301Z,3.50
2023-03-29T16:44:28.014Z,3.50
2023-03-29T16:47:36.834Z,3.30
2023-03-29T16:50:45.355Z,3.80
2023-03-29T16:53:54.856Z,3.40
2023-03-29T16:57:02.962Z,3.30
2023-03-29T17:00:16.450Z,5.50
2023-03-29T17:03:24.990Z,5.20
2023-03-29T17:06:33.250Z,4.90
2023-03-29T17:09:41.276Z,5.30
2023-03-29T17:12:50.560Z,5.00
2023-03-29T17:15:59.250Z,5.70
2023-03-29T17:19:07.124Z,4.80
2023-03-29T17:22:15.378Z,5.00
2023-03-29T17:25:24.673Z,4.50
2023-03-29T17:28:33.917Z,3.90
2023-03-29T17:31:48.138Z,3.60
2023-03-29T17:34:59.374Z,3.30
2023-03-29T17:38:07.418Z,3.60
2023-03-29T17:41:16.192Z,4.70
2023-03-29T17:44:24.850Z,7.00
2023-03-29T17:47:37.491Z,7.20
2023-03-29T17:50:46.265Z,6.40
2023-03-29T17:53:57.264Z,6.80
2023-03-29T17:57:05.165Z,6.50
2023-03-29T18:00:17.920Z,8.00
2023-03-29T18:03:26.544Z,7.10
2023-03-29T18:06:34.740Z,5.90
2023-03-29T18:09:43.734Z,5.80
2023-03-29T18:12:52.878Z,5.90
2023-03-29T18:16:02.551Z,5.40
2023-03-29T18:19:11.540Z,4.60
2023-03-29T18:22:20.833Z,5.00
2023-03-29T18:25:29.526Z,4.90
2023-03-29T18:28:39.946Z,5.30
2023-03-29T18:31:49.152Z,5.80
2023-03-29T18:34:59.870Z,5.70
2023-03-29T18:38:09.442Z,5.60
2023-03-29T18:41:18.822Z,5.10
2023-03-29T18:44:27.402Z,5.20
2023-03-29T18:47:35.795Z,5.30
2023-03-29T18:50:46.642Z,4.80
2023-03-29T18:53:56.579Z,5.10
2023-03-29T18:57:06.413Z,4.80
2023-03-29T19:00:15.915Z,6.60
2023-03-29T19:03:24.563Z,6.30
2023-03-29T19:06:34.357Z,5.20
2023-03-29T19:09:43.485Z,5.40
2023-03-29T19:12:52.115Z,4.40
2023-03-29T19:16:01.003Z,4.20
2023-03-29T19:19:14.395Z,6.20
2023-03-29T19:22:23.589Z,11.10
2023-03-29T19:25:33.776Z,11.20
2023-03-29T19:28:42.522Z,12.10
2023-03-29T19:31:52.188Z,11.10
2023-03-29T19:35:04.446Z,8.80
2023-03-29T19:38:12.897Z,6.20
2023-03-29T19:41:23.528Z,5.50
2023-03-29T19:44:32.085Z,5.80
2023-03-29T19:47:42.374Z,5.40
2023-03-29T19:50:51.445Z,5.50
2023-03-29T19:53:59.732Z,5.60
2023-03-29T19:57:09.380Z,4.00
2023-03-29T20:00:24.585Z,3.20
2023-03-29T20:03:34.330Z,3.20
2023-03-29T20:09:49.373Z,3.20
2023-03-29T20:12:58.021Z,3.40
2023-03-29T20:16:07.037Z,3.50
2023-03-29T20:19:17.935Z,3.50
2023-03-29T20:22:26.576Z,3.20
2023-03-29T20:25:37.996Z,3.20
2023-03-29T20:28:46.059Z,2.80
2023-03-29T20:31:54.406Z,3.00
2023-03-29T20:35:02.922Z,3.00
2023-03-29T20:38:11.946Z,3.10
2023-03-29T20:41:20.843Z,3.30
2023-03-29T20:44:29.297Z,3.20
2023-03-29T20:47:42.641Z,3.10
2023-03-29T20:50:52.086Z,3.20
2023-03-29T20:54:05.109Z,3.30
2023-03-29T20:57:15.929Z,3.60
2023-03-29T21:00:25.620Z,3.90
2023-03-29T21:03:35.329Z,6.30
2023-03-29T21:06:45.795Z,5.70
2023-03-29T21:09:54.458Z,5.40
2023-03-29T21:13:03.019Z,5.10
2023-03-29T21:16:13.253Z,4.50
2023-03-29T21:19:23.181Z,4.60
2023-03-29T21:22:33.703Z,4.70
2023-03-29T21:25:44.377Z,4.40
2023-03-29T21:28:53.349Z,4.30
2023-03-29T21:32:02.500Z,4.50
2023-03-29T21:35:13.335Z,4.50
2023-03-29T21:38:21.847Z,3.20
2023-03-29T21:41:29.984Z,3.10
2023-03-29T21:44:37.891Z,2.70
2023-03-29T21:47:46.233Z,3.00
2023-03-29T21:50:54.831Z,2.90
2023-03-29T21:54:02.896Z,2.90
2023-03-29T21:57:11.272Z,2.80
2023-03-29T22:00:21.599Z,2.80
2023-03-29T22:03:30.157Z,3.10
2023-03-29T22:06:38.083Z,3.20
2023-03-29T22:09:46.619Z,3.10
2023-03-29T22:12:55.158Z,3.40
2023-03-29T22:16:05.068Z,2.80
2023-03-29T22:22:21.882Z,2.90
2023-03-29T22:25:29.954Z,3.20
2023-03-29T22:28:38.712Z,3.20
2023-03-29T22:31:46.898Z,3.30
2023-03-29T22:34:55.627Z,3.80
2023-03-29T22:38:04.460Z,3.80
2023-03-29T22:41:13.379Z,4.30
2023-03-29T22:44:21.679Z,4.20
2023-03-29T22:47:30.027Z,4.30
2023-03-29T22:50:37.941Z,3.50
2023-03-29T22:53:47.986Z,4.20
2023-03-29T22:56:56.014Z,4.30
2023-03-29T23:00:09.475Z,4.40
2023-03-29T23:03:18.016Z,4.70
2023-03-29T23:06:26.603Z,4.90
2023-03-29T23:09:35.265Z,4.50
2023-03-29T23:12:44.120Z,4.10
2023-03-29T23:15:54.637Z,4.60
2023-03-29T23:19:02.923Z,4.60
2023-03-29T23:22:11.792Z,4.50
2023-03-29T23:25:20.015Z,4.40
2023-03-29T23:28:31.909Z,5.00
2023-03-29T23:31:40.240Z,5.10
2023-03-29T23:34:48.306Z,5.30
2023-03-29T23:37:56.681Z,5.10
2023-03-29T23:41:08.681Z,5.30
2023-03-29T23:44:16.748Z,5.50
2023-03-29T23:47:25.565Z,4.70
2023-03-29T23:50:33.750Z,4.50
2023-03-29T23:53:42.054Z,4.20
2023-03-29T23:56:50.897Z,4.10
